createdAt,value
2024-04-30T00:00:47.421Z,101926.65
2024-04-30T00:03:40.640Z,101928.41
2024-04-30T00:06:08.930Z,101925.87
2024-04-30T00:08:39.700Z,101930.19
2024-04-30T00:11:07.743Z,101933.27
2024-04-30T00:13:35.575Z,101933.79
2024-04-30T00:16:03.539Z,101932.73
2024-04-30T00:18:31.392Z,101934.34
2024-04-30T00:20:59.196Z,101928.36
2024-04-30T00:23:26.938Z,101929.55
2024-04-30T00:25:54.700Z,101927.91
2024-04-30T00:28:24.388Z,101931.65
2024-04-30T00:30:52.228Z,101934.06
2024-04-30T00:33:20.072Z,101934.92
2024-04-30T00:35:47.855Z,101937.91
2024-04-30T00:38:15.601Z,101937.50
2024-04-30T00:40:43.393Z,101936.23
2024-04-30T00:43:11.288Z,101936.23
2024-04-30T00:45:39.098Z,101941.95
2024-04-30T00:48:07.248Z,101943.64
2024-04-30T00:50:37.739Z,101939.48
2024-04-30T00:53:05.984Z,101939.39
2024-04-30T00:55:33.822Z,101941.18
2024-04-30T00:58:01.826Z,101938.48
2024-04-30T01:00:29.814Z,101943.13
2024-04-30T01:02:57.683Z,101946.18
2024-04-30T01:05:25.543Z,101947.38
2024-04-30T01:07:53.265Z,101947.80
2024-04-30T01:10:21.122Z,101948.02
2024-04-30T01:12:50.283Z,101948.94
2024-04-30T01:15:20.713Z,101945.83
2024-04-30T01:17:49.029Z,101947.27
2024-04-30T01:20:17.087Z,101946.97
2024-04-30T01:22:45.039Z,101947.61
2024-04-30T01:25:12.856Z,101948.29
2024-04-30T01:27:40.716Z,101952.91
2024-04-30T01:30:08.781Z,101951.45
2024-04-30T01:32:36.636Z,101949.27
2024-04-30T01:35:04.823Z,101945.33
2024-04-30T01:37:32.816Z,101944.46
2024-04-30T01:40:00.765Z,101941.30
2024-04-30T01:42:28.659Z,101935.81
2024-04-30T01:44:56.343Z,101937.42
2024-04-30T01:47:24.178Z,101940.25
2024-04-30T01:49:51.926Z,101936.25
2024-04-30T01:52:19.686Z,101933.02
2024-04-30T01:54:47.421Z,101938.39
2024-04-30T01:57:15.260Z,101936.83
2024-04-30T01:59:44.318Z,101935.27
2024-04-30T02:02:12.658Z,101936.45
2024-04-30T02:04:46.518Z,101937.98
2024-04-30T02:07:17.465Z,101929.75
2024-04-30T02:09:45.365Z,101932.17
2024-04-30T02:12:15.004Z,101932.08
2024-04-30T02:14:43.030Z,101934.66
2024-04-30T02:17:10.870Z,101932.03
2024-04-30T02:19:38.677Z,101933.00
2024-04-30T02:22:06.461Z,101937.77
2024-04-30T02:24:34.346Z,101937.09
2024-04-30T02:27:02.226Z,101934.48
2024-04-30T02:29:29.981Z,101934.29
2024-04-30T02:32:16.509Z,101931.59
2024-04-30T02:34:44.338Z,101931.48
2024-04-30T02:37:12.199Z,101930.45
2024-04-30T02:39:40.075Z,101924.75
2024-04-30T02:42:07.864Z,101924.60
2024-04-30T02:44:35.705Z,101919.40
2024-04-30T02:47:04.475Z,101919.16
2024-04-30T02:49:32.291Z,101916.83
2024-04-30T02:52:00.212Z,101918.74
2024-04-30T02:54:28.076Z,101916.62
2024-04-30T02:56:55.871Z,101915.56
2024-04-30T02:59:23.703Z,101915.77
2024-04-30T03:01:51.670Z,101915.31
2024-04-30T03:04:19.521Z,101914.70
2024-04-30T03:06:47.430Z,101916.91
2024-04-30T03:09:15.278Z,101914.77
2024-04-30T03:11:46.042Z,101912.92
2024-04-30T03:14:13.988Z,101913.56
2024-04-30T03:16:44.583Z,101914.25
2024-04-30T03:19:12.408Z,101915.02
2024-04-30T03:21:40.348Z,101916.69
2024-04-30T03:24:08.272Z,101917.45
2024-04-30T03:26:45.032Z,101917.58
2024-04-30T03:29:12.780Z,101916.53
2024-04-30T03:31:41.119Z,101913.59
2024-04-30T03:34:09.188Z,101917.24
2024-04-30T03:36:37.009Z,101917.77
2024-04-30T03:39:04.961Z,101917.29
2024-04-30T03:41:32.830Z,101913.02
2024-04-30T03:44:00.805Z,101913.23
2024-04-30T03:46:28.646Z,101915.62
2024-04-30T03:48:56.515Z,101912.77
2024-04-30T03:51:24.677Z,101915.48
2024-04-30T03:53:52.384Z,101921.46
2024-04-30T03:56:20.274Z,101923.04
2024-04-30T03:58:48.216Z,101924.53
2024-04-30T04:01:16.130Z,101926.77
2024-04-30T04:03:45.402Z,101926.45
2024-04-30T04:06:16.204Z,101931.98
2024-04-30T04:08:45.411Z,101930.04
2024-04-30T04:11:31.976Z,101930.76
2024-04-30T04:14:18.463Z,101931.55
2024-04-30T04:16:46.624Z,101932.80
2024-04-30T04:19:14.579Z,101935.05
2024-04-30T04:21:42.593Z,101937.45
2024-04-30T04:24:10.655Z,101937.14
2024-04-30T04:26:38.462Z,101941.85
2024-04-30T04:29:06.387Z,101937.27
2024-04-30T04:31:34.261Z,101943.83
2024-04-30T04:34:08.546Z,101941.77
2024-04-30T04:36:37.743Z,101938.83
2024-04-30T04:39:05.651Z,101943.73
2024-04-30T04:41:33.494Z,101944.68
2024-04-30T04:44:01.604Z,101942.83
2024-04-30T04:46:29.637Z,101943.46
2024-04-30T04:49:00.584Z,101942.91
2024-04-30T04:51:30.035Z,101941.61
2024-04-30T04:53:57.887Z,101938.69
2024-04-30T04:56:25.841Z,101936.01
2024-04-30T04:58:54.195Z,101936.45
2024-04-30T05:01:22.222Z,101936.14
2024-04-30T05:03:55.829Z,101934.20
2024-04-30T05:06:23.730Z,101933.60
2024-04-30T05:08:51.868Z,101933.55
2024-04-30T05:11:19.657Z,101933.74
2024-04-30T05:13:48.656Z,101929.85
2024-04-30T05:16:16.500Z,101929.70
2024-04-30T05:18:44.510Z,101919.59
2024-04-30T05:21:13.958Z,101917.27
2024-04-30T05:23:41.967Z,101920.38
2024-04-30T05:26:09.725Z,101921.75
2024-04-30T05:28:38.745Z,101926.64
2024-04-30T05:31:10.158Z,101925.02
2024-04-30T05:33:39.724Z,101920.65
2024-04-30T05:36:07.569Z,101924.36
2024-04-30T05:38:37.206Z,101917.25
2024-04-30T05:41:06.028Z,101917.48
2024-04-30T05:43:34.022Z,101916.63
2024-04-30T05:46:02.633Z,101920.52
2024-04-30T05:48:33.437Z,101915.90
2024-04-30T05:51:04.230Z,101914.48
2024-04-30T05:53:33.136Z,101915.86
2024-04-30T05:56:00.944Z,101920.06
2024-04-30T05:58:28.778Z,101923.34
2024-04-30T06:00:56.736Z,101921.92
2024-04-30T06:03:24.783Z,101922.54
2024-04-30T06:05:52.905Z,101923.40
2024-04-30T06:08:20.751Z,101917.52
2024-04-30T06:10:48.636Z,101915.45
2024-04-30T06:13:16.750Z,101909.92
2024-04-30T06:15:44.566Z,101906.18
2024-04-30T06:18:13.742Z,101909.94
2024-04-30T06:20:41.830Z,101913.20
2024-04-30T06:23:09.639Z,101912.71
2024-04-30T06:25:38.136Z,101911.92
2024-04-30T06:28:06.400Z,101911.13
2024-04-30T06:30:34.406Z,101913.14
2024-04-30T06:33:02.222Z,101916.53
2024-04-30T06:35:29.976Z,101918.30
2024-04-30T06:37:57.700Z,101922.93
2024-04-30T06:40:27.361Z,101924.41
2024-04-30T06:42:55.630Z,101920.80
2024-04-30T06:45:24.412Z,101921.02
2024-04-30T06:47:53.441Z,101924.95
2024-04-30T06:50:23.234Z,101929.55
2024-04-30T06:52:52.320Z,101929.48
2024-04-30T06:55:20.142Z,101932.42
2024-04-30T06:57:48.541Z,101926.85
2024-04-30T07:00:16.588Z,101930.13
2024-04-30T07:02:44.550Z,101930.17
2024-04-30T07:05:12.601Z,101929.27
2024-04-30T07:07:40.611Z,101923.96
2024-04-30T07:10:08.925Z,101925.83
2024-04-30T07:12:37.134Z,101919.70
2024-04-30T07:15:05.568Z,101919.23
2024-04-30T07:17:33.580Z,101916.13
2024-04-30T07:20:01.579Z,101914.40
2024-04-30T07:22:29.611Z,101912.20
2024-04-30T07:24:58.903Z,101919.50
2024-04-30T07:27:29.374Z,101915.13
2024-04-30T07:29:57.742Z,101919.30
2024-04-30T07:32:25.860Z,101914.08
2024-04-30T07:34:54.274Z,101916.56
2024-04-30T07:37:25.231Z,101911.84
2024-04-30T07:39:54.921Z,101913.30
2024-04-30T07:42:23.216Z,101913.33
2024-04-30T07:44:51.312Z,101912.95
2024-04-30T07:47:19.509Z,101913.22
2024-04-30T07:49:47.523Z,101910.39
2024-04-30T07:52:18.331Z,101909.95
2024-04-30T07:54:47.639Z,101904.51
2024-04-30T07:57:15.763Z,101906.42
2024-04-30T07:59:44.912Z,101904.48
2024-04-30T08:02:15.732Z,101905.93
2024-04-30T08:04:47.100Z,101897.58
2024-04-30T08:07:15.362Z,101896.73
2024-04-30T08:09:46.342Z,101897.69
2024-04-30T08:12:15.064Z,101895.34
2024-04-30T08:14:43.026Z,101894.34
2024-04-30T08:17:11.016Z,101888.77
2024-04-30T08:19:38.940Z,101888.81
2024-04-30T08:22:07.140Z,101890.42
2024-04-30T08:24:35.643Z,101890.38
2024-04-30T08:27:05.625Z,101884.83
2024-04-30T08:29:33.701Z,101881.59
2024-04-30T08:32:03.651Z,101878.84
2024-04-30T08:34:31.561Z,101876.08
2024-04-30T08:37:00.202Z,101873.09
2024-04-30T08:39:28.080Z,101873.74
2024-04-30T08:41:56.790Z,101873.39
2024-04-30T08:44:26.553Z,101873.98
2024-04-30T08:46:56.507Z,101870.12
2024-04-30T08:49:37.315Z,101869.55
2024-04-30T08:52:13.640Z,101865.88
2024-04-30T08:54:43.123Z,101863.12
2024-04-30T08:57:11.270Z,101859.06
2024-04-30T08:59:39.529Z,101856.44
2024-04-30T09:02:08.900Z,101852.61
2024-04-30T09:04:39.931Z,101854.16
2024-04-30T09:07:10.753Z,101849.98
2024-04-30T09:09:38.837Z,101851.50
2024-04-30T09:12:07.417Z,101848.14
2024-04-30T09:14:44.869Z,101846.70
2024-04-30T09:17:12.925Z,101840.91
2024-04-30T09:19:41.016Z,101837.42
2024-04-30T09:22:11.202Z,101832.20
2024-04-30T09:24:49.004Z,101833.69
2024-04-30T09:27:17.071Z,101831.00
2024-04-30T09:29:45.652Z,101826.50
2024-04-30T09:32:23.859Z,101819.64
2024-04-30T09:34:54.229Z,101812.74
2024-04-30T09:37:24.103Z,101817.39
2024-04-30T09:39:54.628Z,101818.79
2024-04-30T09:42:27.070Z,101819.77
2024-04-30T09:45:00.152Z,101817.99
2024-04-30T09:47:37.813Z,101816.36
2024-04-30T09:50:08.857Z,101810.56
2024-04-30T09:52:45.019Z,101815.58
2024-04-30T09:55:14.655Z,101805.60
2024-04-30T09:57:45.825Z,101799.52
2024-04-30T10:00:23.441Z,101801.45
2024-04-30T10:03:03.189Z,101797.31
2024-04-30T10:05:36.479Z,101791.18
2024-04-30T10:08:05.767Z,101791.41
2024-04-30T10:10:35.246Z,101785.67
2024-04-30T10:13:14.192Z,101780.31
2024-04-30T10:15:43.708Z,101777.23
2024-04-30T10:18:28.948Z,101772.86
2024-04-30T10:21:12.355Z,101770.90
2024-04-30T10:23:45.418Z,101771.35
2024-04-30T10:26:17.888Z,101765.31
2024-04-30T10:28:59.302Z,101767.02
2024-04-30T10:31:32.621Z,101764.11
2024-04-30T10:34:11.210Z,101763.35
2024-04-30T10:36:51.944Z,101756.19
2024-04-30T10:39:27.550Z,101753.80
2024-04-30T10:42:01.633Z,101754.85
2024-04-30T10:44:29.982Z,101748.93
2024-04-30T10:47:00.614Z,101746.82
2024-04-30T10:49:30.609Z,101744.39
2024-04-30T10:52:02.112Z,101744.74
2024-04-30T10:54:32.823Z,101744.93
2024-04-30T10:57:02.153Z,101740.99
2024-04-30T10:59:41.009Z,101741.57
2024-04-30T11:02:13.626Z,101738.41
2024-04-30T11:04:47.369Z,101738.28
2024-04-30T11:07:22.404Z,101726.31
2024-04-30T11:09:52.210Z,101724.95
2024-04-30T11:12:22.142Z,101722.94
2024-04-30T11:14:54.700Z,101720.70
2024-04-30T11:17:27.417Z,101722.35
2024-04-30T11:19:56.685Z,101718.82
2024-04-30T11:22:24.626Z,101717.09
2024-04-30T11:24:52.735Z,101712.61
2024-04-30T11:27:24.942Z,101711.14
2024-04-30T11:29:54.446Z,101710.54
2024-04-30T11:32:22.599Z,101709.63
2024-04-30T11:34:53.628Z,101710.10
2024-04-30T11:37:25.785Z,101706.45
2024-04-30T11:39:57.286Z,101701.86
2024-04-30T11:42:34.337Z,101700.05
2024-04-30T11:45:14.499Z,101700.23
2024-04-30T11:47:42.565Z,101701.75
2024-04-30T11:50:10.925Z,101697.89
2024-04-30T11:52:40.859Z,101687.61
2024-04-30T11:55:10.932Z,101688.88
2024-04-30T11:57:40.891Z,101694.83
2024-04-30T12:00:11.918Z,101691.38
2024-04-30T12:02:44.513Z,101687.48
2024-04-30T12:05:13.022Z,101690.32
2024-04-30T12:07:41.267Z,101683.53
2024-04-30T12:10:10.946Z,101687.35
2024-04-30T12:12:44.187Z,101685.23
2024-04-30T12:15:26.850Z,101677.51
2024-04-30T12:17:55.292Z,101682.65
2024-04-30T12:20:23.546Z,101675.05
2024-04-30T12:22:51.900Z,101676.33
2024-04-30T12:25:22.288Z,101669.23
2024-04-30T12:27:52.216Z,101668.11
2024-04-30T12:30:22.264Z,101664.35
2024-04-30T12:32:54.714Z,101664.31
2024-04-30T12:35:25.986Z,101660.70
2024-04-30T12:38:00.977Z,101650.42
2024-04-30T12:40:30.425Z,101649.52
2024-04-30T12:43:02.733Z,101649.40
2024-04-30T12:45:33.257Z,101641.45
2024-04-30T12:48:02.490Z,101637.33
2024-04-30T12:50:31.332Z,101637.44
2024-04-30T12:53:06.813Z,101631.48
2024-04-30T12:55:35.643Z,101632.39
2024-04-30T12:58:09.454Z,101630.52
2024-04-30T13:00:39.444Z,101623.39
2024-04-30T13:03:09.447Z,101621.34
2024-04-30T13:05:41.257Z,101616.81
2024-04-30T13:08:19.051Z,101611.08
2024-04-30T13:10:48.187Z,101612.83
2024-04-30T13:13:18.521Z,101611.43
2024-04-30T13:15:46.840Z,101605.88
2024-04-30T13:18:16.763Z,101610.67
2024-04-30T13:20:44.841Z,101605.02
2024-04-30T13:23:12.989Z,101613.45
2024-04-30T13:25:41.429Z,101611.05
2024-04-30T13:28:09.775Z,101602.00
2024-04-30T13:30:38.837Z,101596.64
2024-04-30T13:33:15.208Z,101596.71
2024-04-30T13:35:43.774Z,101598.38
2024-04-30T13:38:12.501Z,101597.07
2024-04-30T13:40:42.074Z,101588.08
2024-04-30T13:43:10.220Z,101586.84
2024-04-30T13:45:38.288Z,101582.05
2024-04-30T13:48:09.166Z,101579.45
2024-04-30T13:50:39.830Z,101576.64
2024-04-30T13:53:09.314Z,101574.45
2024-04-30T13:55:37.426Z,101572.04
2024-04-30T13:58:05.830Z,101569.27
2024-04-30T14:00:35.326Z,101571.42
2024-04-30T14:03:05.642Z,101569.73
2024-04-30T14:05:36.394Z,101563.48
2024-04-30T14:08:07.288Z,101563.59
2024-04-30T14:10:36.992Z,101561.01
2024-04-30T14:13:06.647Z,101553.50
2024-04-30T14:15:35.283Z,101559.63
2024-04-30T14:18:07.220Z,101560.20
2024-04-30T14:20:36.947Z,101557.09
2024-04-30T14:23:05.182Z,101554.27
2024-04-30T14:25:36.665Z,101555.38
2024-04-30T14:28:06.516Z,101554.20
2024-04-30T14:30:35.399Z,101552.54
2024-04-30T14:33:03.801Z,101544.02
2024-04-30T14:35:53.811Z,101547.79
2024-04-30T14:38:25.460Z,101538.33
2024-04-30T14:40:54.857Z,101537.80
2024-04-30T14:43:25.326Z,101536.03
2024-04-30T14:46:01.389Z,101532.48
2024-04-30T14:48:32.175Z,101531.03
2024-04-30T14:51:07.358Z,101528.15
2024-04-30T14:53:36.059Z,101528.77
2024-04-30T14:56:05.244Z,101527.35
2024-04-30T14:58:35.743Z,101522.36
2024-04-30T15:01:06.226Z,101520.77
2024-04-30T15:03:35.029Z,101523.56
2024-04-30T15:06:05.226Z,101525.20
2024-04-30T15:08:40.502Z,101518.43
2024-04-30T15:11:22.651Z,101511.55
2024-04-30T15:13:51.631Z,101512.39
2024-04-30T15:16:20.645Z,101510.84
2024-04-30T15:18:49.292Z,101511.46
2024-04-30T15:21:17.382Z,101506.72
2024-04-30T15:23:45.941Z,101503.00
2024-04-30T15:26:15.691Z,101499.58
2024-04-30T15:28:44.045Z,101496.41
2024-04-30T15:31:24.154Z,101496.05
2024-04-30T15:33:52.768Z,101490.29
2024-04-30T15:36:20.734Z,101485.27
2024-04-30T15:38:48.756Z,101488.94
2024-04-30T15:41:21.945Z,101483.81
2024-04-30T15:43:50.840Z,101482.21
2024-04-30T15:46:19.011Z,101477.52
2024-04-30T15:48:50.975Z,101476.33
2024-04-30T15:51:19.849Z,101470.28
2024-04-30T15:53:48.088Z,101461.52
2024-04-30T15:56:19.455Z,101460.28
2024-04-30T15:58:48.844Z,101460.71
2024-04-30T16:01:17.095Z,101461.52
2024-04-30T16:03:47.519Z,101455.13
2024-04-30T16:06:15.897Z,101457.35
2024-04-30T16:08:44.200Z,101454.52
2024-04-30T16:11:12.564Z,101453.27
2024-04-30T16:13:41.722Z,101447.12
2024-04-30T16:16:16.601Z,101447.08
2024-04-30T16:18:48.429Z,101447.12
2024-04-30T16:21:19.940Z,101444.28
2024-04-30T16:23:51.783Z,101442.76
2024-04-30T16:26:20.331Z,101442.14
2024-04-30T16:28:48.602Z,101436.99
2024-04-30T16:31:18.519Z,101436.35
2024-04-30T16:33:46.749Z,101435.35
2024-04-30T16:36:24.437Z,101431.34
2024-04-30T16:38:55.138Z,101434.55
2024-04-30T16:41:23.680Z,101431.63
2024-04-30T16:43:55.027Z,101427.86
2024-04-30T16:46:32.367Z,101429.77
2024-04-30T16:49:06.842Z,101421.98
2024-04-30T16:51:36.750Z,101423.46
2024-04-30T16:54:06.358Z,101423.73
2024-04-30T16:56:41.044Z,101429.00
2024-04-30T16:59:12.921Z,101426.48
2024-04-30T17:01:49.941Z,101427.41
2024-04-30T17:04:23.151Z,101430.01
2024-04-30T17:06:53.701Z,101427.52
2024-04-30T17:09:27.039Z,101426.52
2024-04-30T17:11:55.760Z,101424.23
2024-04-30T17:14:24.023Z,101423.84
2024-04-30T17:16:52.204Z,101420.81
2024-04-30T17:19:20.922Z,101421.55
2024-04-30T17:21:49.158Z,101424.34
2024-04-30T17:24:17.294Z,101421.83
2024-04-30T17:26:46.302Z,101420.73
2024-04-30T17:29:15.854Z,101424.29
2024-04-30T17:31:45.575Z,101414.75
2024-04-30T17:34:16.105Z,101414.96
2024-04-30T17:36:50.028Z,101416.91
2024-04-30T17:39:19.895Z,101415.86
2024-04-30T17:41:50.895Z,101418.98
2024-04-30T17:44:21.140Z,101420.30
2024-04-30T17:46:56.007Z,101416.52
2024-04-30T17:49:24.553Z,101418.84
2024-04-30T17:51:53.698Z,101419.39
2024-04-30T17:54:24.341Z,101414.60
2024-04-30T17:56:52.302Z,101419.66
2024-04-30T17:59:20.635Z,101421.66
2024-04-30T18:01:49.132Z,101417.29
2024-04-30T18:04:18.337Z,101421.33
2024-04-30T18:06:49.295Z,101420.96
2024-04-30T18:09:19.136Z,101418.73
2024-04-30T18:11:52.072Z,101421.75
2024-04-30T18:14:26.462Z,101425.14
2024-04-30T18:17:03.104Z,101422.07
2024-04-30T18:19:42.277Z,101427.73
2024-04-30T18:22:16.740Z,101428.27
2024-04-30T18:24:46.108Z,101431.09
2024-04-30T18:27:17.845Z,101430.99
2024-04-30T18:29:58.655Z,101431.61
2024-04-30T18:32:31.553Z,101433.92
2024-04-30T18:35:26.818Z,101434.21
2024-04-30T18:37:57.759Z,101435.55
2024-04-30T18:40:32.172Z,101438.39
2024-04-30T18:43:05.704Z,101436.66
2024-04-30T18:45:37.215Z,101438.15
2024-04-30T18:48:05.517Z,101437.80
2024-04-30T18:50:36.537Z,101440.98
2024-04-30T18:53:04.748Z,101444.17
2024-04-30T18:55:46.226Z,101445.13
2024-04-30T18:58:15.724Z,101443.64
2024-04-30T19:00:46.544Z,101445.44
2024-04-30T19:03:21.247Z,101444.46
2024-04-30T19:05:52.274Z,101448.95
2024-04-30T19:08:21.832Z,101451.81
2024-04-30T19:10:50.413Z,101447.88
2024-04-30T19:13:21.715Z,101450.63
2024-04-30T19:15:54.760Z,101449.36
2024-04-30T19:18:23.599Z,101445.37
2024-04-30T19:20:51.515Z,101446.15
2024-04-30T19:23:30.165Z,101444.27
2024-04-30T19:26:02.698Z,101448.20
2024-04-30T19:28:30.539Z,101449.22
2024-04-30T19:30:58.722Z,101449.03
2024-04-30T19:33:26.945Z,101449.94
2024-04-30T19:35:54.929Z,101449.20
2024-04-30T19:38:23.106Z,101454.50
2024-04-30T19:40:51.214Z,101452.46
2024-04-30T19:43:18.966Z,101450.02
2024-04-30T19:45:47.422Z,101444.45
2024-04-30T19:48:17.999Z,101449.19
2024-04-30T19:50:47.455Z,101448.60
2024-04-30T19:53:15.286Z,101451.32
2024-04-30T19:55:43.200Z,101451.06
2024-04-30T19:58:11.228Z,101454.76
2024-04-30T20:00:39.794Z,101454.08
2024-04-30T20:03:08.020Z,101454.64
2024-04-30T20:05:36.986Z,101453.80
2024-04-30T20:08:05.223Z,101457.05
2024-04-30T20:10:33.224Z,101454.98
2024-04-30T20:13:01.032Z,101458.89
2024-04-30T20:15:29.691Z,101459.16
2024-04-30T20:17:57.480Z,101462.91
2024-04-30T20:20:25.381Z,101460.38
2024-04-30T20:22:53.261Z,101459.80
2024-04-30T20:25:23.587Z,101460.06
2024-04-30T20:27:52.817Z,101460.85
2024-04-30T20:30:20.859Z,101466.27
2024-04-30T20:32:48.930Z,101463.34
2024-04-30T20:35:21.475Z,101465.52
2024-04-30T20:37:49.699Z,101468.18
2024-04-30T20:40:17.653Z,101464.31
2024-04-30T20:42:45.616Z,101462.58
2024-04-30T20:45:13.523Z,101462.13
2024-04-30T20:47:41.480Z,101461.39
2024-04-30T20:50:09.576Z,101461.02
2024-04-30T20:52:37.990Z,101462.99
2024-04-30T20:55:05.941Z,101463.92
2024-04-30T20:57:33.816Z,101465.52
2024-04-30T21:00:02.672Z,101467.80
2024-04-30T21:02:30.761Z,101472.36
2024-04-30T21:04:58.547Z,101472.05
2024-04-30T21:07:26.470Z,101474.07
2024-04-30T21:09:54.486Z,101474.05
2024-04-30T21:12:22.350Z,101478.36
2024-04-30T21:14:50.110Z,101479.48
2024-04-30T21:17:18.107Z,101482.23
2024-04-30T21:19:46.060Z,101482.91
2024-04-30T21:22:13.939Z,101482.90
2024-04-30T21:24:41.913Z,101483.00
2024-04-30T21:27:09.696Z,101484.84
2024-04-30T21:29:40.456Z,101483.77
2024-04-30T21:32:10.131Z,101484.14
2024-04-30T21:34:38.032Z,101486.64
2024-04-30T21:37:05.972Z,101487.89
2024-04-30T21:39:34.117Z,101494.17
2024-04-30T21:42:01.880Z,101495.42
2024-04-30T21:44:30.146Z,101495.48
2024-04-30T21:46:57.890Z,101494.73
2024-04-30T21:49:25.847Z,101491.77
2024-04-30T21:51:53.935Z,101487.81
2024-04-30T21:54:21.843Z,101488.55
2024-04-30T21:56:49.631Z,101490.42
2024-04-30T21:59:17.401Z,101489.49
2024-04-30T22:01:48.342Z,101488.25
2024-04-30T22:04:16.322Z,101489.20
2024-04-30T22:06:44.246Z,101491.00
2024-04-30T22:09:12.077Z,101487.70
2024-04-30T22:11:42.490Z,101491.38
2024-04-30T22:14:10.478Z,101486.09
2024-04-30T22:16:38.256Z,101483.39
2024-04-30T22:19:06.062Z,101490.11
2024-04-30T22:21:33.973Z,101490.62
2024-04-30T22:24:08.442Z,101487.40
2024-04-30T22:26:37.775Z,101485.20
2024-04-30T22:29:05.476Z,101487.02
2024-04-30T22:31:33.795Z,101485.73
2024-04-30T22:34:01.680Z,101483.63
2024-04-30T22:36:29.948Z,101487.16
2024-04-30T22:38:57.699Z,101487.19
2024-04-30T22:41:25.459Z,101489.41
2024-04-30T22:43:53.330Z,101491.14
2024-04-30T22:46:21.112Z,101491.02
2024-04-30T22:48:49.199Z,101489.79
2024-04-30T22:51:18.439Z,101490.31
2024-04-30T22:53:50.747Z,101488.28
2024-04-30T22:56:21.386Z,101488.08
2024-04-30T22:58:49.161Z,101485.23
2024-04-30T23:01:17.162Z,101479.06
2024-04-30T23:03:45.205Z,101481.21
2024-04-30T23:06:12.986Z,101483.11
2024-04-30T23:08:40.746Z,101484.48
2024-04-30T23:11:09.710Z,101480.89
2024-04-30T23:13:37.544Z,101480.41
2024-04-30T23:16:05.910Z,101480.75
2024-04-30T23:18:33.925Z,101480.91
2024-04-30T23:21:01.858Z,101482.72
2024-04-30T23:23:30.542Z,101481.20
2024-04-30T23:25:58.345Z,101478.30
2024-04-30T23:28:26.154Z,101477.83
2024-04-30T23:30:54.241Z,101477.48
2024-04-30T23:33:22.107Z,101471.44
2024-04-30T23:35:49.934Z,101476.34
2024-04-30T23:38:18.036Z,101475.15
2024-04-30T23:40:45.917Z,101473.95
2024-04-30T23:43:13.741Z,101474.27
2024-04-30T23:45:41.718Z,101469.74
2024-04-30T23:48:09.546Z,101468.71
2024-04-30T23:50:37.606Z,101464.70
2024-04-30T23:53:05.368Z,101464.84
2024-04-30T23:55:33.161Z,101461.96
2024-04-30T23:58:00.960Z,101461.66
